sensor_id;sensor_type;location;lat;lon;timestamp;temperature;humidity
23124;DHT22;11731;48.592;8.858;2023-04-12T00:01:12;10.50;99.90
23124;DHT22;11731;48.592;8.858;2023-04-12T00:03:56;10.40;99.90
23124;DHT22;11731;48.592;8.858;2023-04-12T00:06:23;10.00;99.90
23124;DHT22;11731;48.592;8.858;2023-04-12T00:08:57;9.60;99.90
23124;DHT22;11731;48.592;8.858;2023-04-12T00:11:24;9.70;99.90
23124;DHT22;11731;48.592;8.858;2023-04-12T00:13:56;9.70;99.90
23124;DHT22;11731;48.592;8.858;2023-04-12T00:16:23;9.70;99.90
23124;DHT22;11731;48.592;8.858;2023-04-12T00:18:50;9.70;99.90
23124;DHT22;11731;48.592;8.858;2023-04-12T00:21:17;10.00;99.90
23124;DHT22;11731;48.592;8.858;2023-04-12T00:23:44;9.90;99.90
23124;DHT22;11731;48.592;8.858;2023-04-12T00:26:11;10.10;99.90
23124;DHT22;11731;48.592;8.858;2023-04-12T00:30:47;10.30;99.90
23124;DHT22;11731;48.592;8.858;2023-04-12T00:34:51;10.50;99.90
23124;DHT22;11731;48.592;8.858;2023-04-12T00:39:46;10.90;99.90
23124;DHT22;11731;48.592;8.858;2023-04-12T00:42:13;10.80;99.90
23124;DHT22;11731;48.592;8.858;2023-04-12T00:44:40;10.80;99.90
23124;DHT22;11731;48.592;8.858;2023-04-12T00:47:07;10.90;99.90
23124;DHT22;11731;48.592;8.858;2023-04-12T00:49:34;10.70;99.90
23124;DHT22;11731;48.592;8.858;2023-04-12T00:52:05;10.50;99.90
23124;DHT22;11731;48.592;8.858;2023-04-12T00:54:33;10.70;99.90
23124;DHT22;11731;48.592;8.858;2023-04-12T00:57:00;10.70;99.90
23124;DHT22;11731;48.592;8.858;2023-04-12T00:59:27;10.60;99.90
23124;DHT22;11731;48.592;8.858;2023-04-12T01:02:09;10.40;99.90
23124;DHT22;11731;48.592;8.858;2023-04-12T01:11:13;10.10;99.90
23124;DHT22;11731;48.592;8.858;2023-04-12T01:13:48;10.00;99.90
23124;DHT22;11731;48.592;8.858;2023-04-12T01:16:29;10.20;99.90
23124;DHT22;11731;48.592;8.858;2023-04-12T01:19:18;10.20;99.90
23124;DHT22;11731;48.592;8.858;2023-04-12T01:22:01;10.40;99.90
23124;DHT22;11731;48.592;8.858;2023-04-12T01:24:54;10.60;99.90
23124;DHT22;11731;48.592;8.858;2023-04-12T01:28:07;10.50;99.90
23124;DHT22;11731;48.592;8.858;2023-04-12T01:30:36;10.30;99.90
23124;DHT22;11731;48.592;8.858;2023-04-12T01:33:05;10.30;99.90
23124;DHT22;11731;48.592;8.858;2023-04-12T01:35:33;10.20;99.90
23124;DHT22;11731;48.592;8.858;2023-04-12T01:38:01;10.40;99.90
23124;DHT22;11731;48.592;8.858;2023-04-12T01:40:30;10.50;99.90
23124;DHT22;11731;48.592;8.858;2023-04-12T01:43:19;10.50;99.90
23124;DHT22;11731;48.592;8.858;2023-04-12T01:45:46;10.70;99.90
23124;DHT22;11731;48.592;8.858;2023-04-12T01:48:40;10.80;99.90
23124;DHT22;11731;48.592;8.858;2023-04-12T01:51:56;10.90;99.90
23124;DHT22;11731;48.592;8.858;2023-04-12T01:54:27;10.90;99.90
23124;DHT22;11731;48.592;8.858;2023-04-12T01:58:24;11.00;99.90
23124;DHT22;11731;48.592;8.858;2023-04-12T02:00:31;10.60;99.90
23124;DHT22;11731;48.592;8.858;2023-04-12T02:03:00;10.70;99.90
23124;DHT22;11731;48.592;8.858;2023-04-12T02:05:57;10.70;99.90
23124;DHT22;11731;48.592;8.858;2023-04-12T02:08:25;10.70;99.90
23124;DHT22;11731;48.592;8.858;2023-04-12T02:10:52;10.80;99.90
23124;DHT22;11731;48.592;8.858;2023-04-12T02:13:19;10.90;99.90
23124;DHT22;11731;48.592;8.858;2023-04-12T02:15:47;10.90;99.90
23124;DHT22;11731;48.592;8.858;2023-04-12T02:18:14;10.90;99.90
23124;DHT22;11731;48.592;8.858;2023-04-12T02:20:42;10.90;99.90
23124;DHT22;11731;48.592;8.858;2023-04-12T02:23:09;10.70;99.90
23124;DHT22;11731;48.592;8.858;2023-04-12T02:26:00;10.70;99.90
23124;DHT22;11731;48.592;8.858;2023-04-12T02:28:37;10.60;99.90
23124;DHT22;11731;48.592;8.858;2023-04-12T02:31:06;10.70;99.90
23124;DHT22;11731;48.592;8.858;2023-04-12T02:33:33;10.80;99.90
23124;DHT22;11731;48.592;8.858;2023-04-12T02:36:15;10.90;99.90
23124;DHT22;11731;48.592;8.858;2023-04-12T02:38:42;10.80;99.90
23124;DHT22;11731;48.592;8.858;2023-04-12T02:41:33;10.40;99.90
23124;DHT22;11731;48.592;8.858;2023-04-12T02:43:59;10.20;99.90
23124;DHT22;11731;48.592;8.858;2023-04-12T02:46:28;10.30;99.90
23124;DHT22;11731;48.592;8.858;2023-04-12T02:48:55;10.50;99.90
23124;DHT22;11731;48.592;8.858;2023-04-12T02:51:22;10.70;99.90
23124;DHT22;11731;48.592;8.858;2023-04-12T02:53:49;10.80;99.90
23124;DHT22;11731;48.592;8.858;2023-04-12T02:56:18;10.80;99.90
23124;DHT22;11731;48.592;8.858;2023-04-12T03:00:56;11.00;99.90
23124;DHT22;11731;48.592;8.858;2023-04-12T03:05:21;10.80;99.90
23124;DHT22;11731;48.592;8.858;2023-04-12T03:07:47;10.80;99.90
23124;DHT22;11731;48.592;8.858;2023-04-12T03:10:41;10.90;99.90
23124;DHT22;11731;48.592;8.858;2023-04-12T03:13:10;10.90;99.90
23124;DHT22;11731;48.592;8.858;2023-04-12T03:15:37;10.80;99.90
23124;DHT22;11731;48.592;8.858;2023-04-12T03:21:53;10.20;99.90
23124;DHT22;11731;48.592;8.858;2023-04-12T03:24:48;10.20;99.90
23124;DHT22;11731;48.592;8.858;2023-04-12T03:28:10;9.90;99.90
23124;DHT22;11731;48.592;8.858;2023-04-12T03:30:27;9.90;99.90
23124;DHT22;11731;48.592;8.858;2023-04-12T03:32:54;10.10;99.90
23124;DHT22;11731;48.592;8.858;2023-04-12T03:35:21;10.10;99.90
23124;DHT22;11731;48.592;8.858;2023-04-12T03:37:49;9.80;99.90
23124;DHT22;11731;48.592;8.858;2023-04-12T03:43:29;9.70;99.90
23124;DHT22;11731;48.592;8.858;2023-04-12T03:46:00;10.10;99.90
23124;DHT22;11731;48.592;8.858;2023-04-12T03:48:32;10.00;99.90
23124;DHT22;11731;48.592;8.858;2023-04-12T03:50:59;10.10;99.90
23124;DHT22;11731;48.592;8.858;2023-04-12T03:53:34;10.20;99.90
23124;DHT22;11731;48.592;8.858;2023-04-12T03:56:01;10.30;99.90
23124;DHT22;11731;48.592;8.858;2023-04-12T03:58:28;10.20;99.90
23124;DHT22;11731;48.592;8.858;2023-04-12T04:00:55;9.90;99.90
23124;DHT22;11731;48.592;8.858;2023-04-12T04:03:49;9.50;99.90
23124;DHT22;11731;48.592;8.858;2023-04-12T04:07:00;9.40;99.90
23124;DHT22;11731;48.592;8.858;2023-04-12T04:09:22;9.30;99.90
23124;DHT22;11731;48.592;8.858;2023-04-12T04:11:49;9.10;99.90
23124;DHT22;11731;48.592;8.858;2023-04-12T04:14:16;9.20;99.90
23124;DHT22;11731;48.592;8.858;2023-04-12T04:16:47;9.30;99.90
23124;DHT22;11731;48.592;8.858;2023-04-12T04:23:01;9.70;99.90
23124;DHT22;11731;48.592;8.858;2023-04-12T04:25:32;9.80;99.90
23124;DHT22;11731;48.592;8.858;2023-04-12T04:27:59;9.70;99.90
23124;DHT22;11731;48.592;8.858;2023-04-12T04:30:27;9.60;99.90
23124;DHT22;11731;48.592;8.858;2023-04-12T04:32:54;9.80;99.90
23124;DHT22;11731;48.592;8.858;2023-04-12T04:38:30;10.10;99.90
23124;DHT22;11731;48.592;8.858;2023-04-12T04:44:05;10.00;99.90
23124;DHT22;11731;48.592;8.858;2023-04-12T04:46:36;10.10;99.90
23124;DHT22;11731;48.592;8.858;2023-04-12T04:49:13;10.20;99.90
23124;DHT22;11731;48.592;8.858;2023-04-12T04:51:40;10.20;99.90
23124;DHT22;11731;48.592;8.858;2023-04-12T04:54:07;10.10;99.90
23124;DHT22;11731;48.592;8.858;2023-04-12T04:56:34;10.30;99.90
23124;DHT22;11731;48.592;8.858;2023-04-12T04:59:01;10.30;99.90
23124;DHT22;11731;48.592;8.858;2023-04-12T05:01:39;10.40;99.90
23124;DHT22;11731;48.592;8.858;2023-04-12T05:07:33;10.80;99.90
23124;DHT22;11731;48.592;8.858;2023-04-12T05:10:01;10.60;99.90
23124;DHT22;11731;48.592;8.858;2023-04-12T05:12:53;10.10;99.90
23124;DHT22;11731;48.592;8.858;2023-04-12T05:15:20;9.90;99.90
23124;DHT22;11731;48.592;8.858;2023-04-12T05:17:51;9.60;99.90
23124;DHT22;11731;48.592;8.858;2023-04-12T05:20:18;9.70;99.90
23124;DHT22;11731;48.592;8.858;2023-04-12T05:22:47;9.90;99.90
23124;DHT22;11731;48.592;8.858;2023-04-12T05:25:18;10.30;99.90
23124;DHT22;11731;48.592;8.858;2023-04-12T05:27:46;10.00;99.90
23124;DHT22;11731;48.592;8.858;2023-04-12T05:30:22;9.80;99.90
23124;DHT22;11731;48.592;8.858;2023-04-12T05:32:48;9.70;99.90
23124;DHT22;11731;48.592;8.858;2023-04-12T05:35:17;9.70;99.90
23124;DHT22;11731;48.592;8.858;2023-04-12T05:37:44;9.90;99.90
23124;DHT22;11731;48.592;8.858;2023-04-12T05:40:11;10.20;99.90
23124;DHT22;11731;48.592;8.858;2023-04-12T05:42:40;10.50;99.90
23124;DHT22;11731;48.592;8.858;2023-04-12T05:45:09;10.30;99.90
23124;DHT22;11731;48.592;8.858;2023-04-12T05:48:30;10.30;99.90
23124;DHT22;11731;48.592;8.858;2023-04-12T05:50:58;10.10;99.90
23124;DHT22;11731;48.592;8.858;2023-04-12T05:53:49;10.60;99.90
23124;DHT22;11731;48.592;8.858;2023-04-12T05:56:18;10.50;99.90
23124;DHT22;11731;48.592;8.858;2023-04-12T05:58:45;10.50;99.90
23124;DHT22;11731;48.592;8.858;2023-04-12T06:01:19;10.20;99.90
23124;DHT22;11731;48.592;8.858;2023-04-12T06:03:47;10.10;99.90
23124;DHT22;11731;48.592;8.858;2023-04-12T06:09:22;9.90;99.90
23124;DHT22;11731;48.592;8.858;2023-04-12T06:11:50;10.10;99.90
23124;DHT22;11731;48.592;8.858;2023-04-12T06:14:45;9.90;99.90
23124;DHT22;11731;48.592;8.858;2023-04-12T06:19:56;9.80;99.90
23124;DHT22;11731;48.592;8.858;2023-04-12T06:22:23;9.90;99.90
23124;DHT22;11731;48.592;8.858;2023-04-12T06:24:53;9.80;99.90
23124;DHT22;11731;48.592;8.858;2023-04-12T06:27:32;9.90;99.90
23124;DHT22;11731;48.592;8.858;2023-04-12T06:29:59;10.10;99.90
23124;DHT22;11731;48.592;8.858;2023-04-12T06:32:29;10.30;99.90
23124;DHT22;11731;48.592;8.858;2023-04-12T06:38:18;10.60;99.90
23124;DHT22;11731;48.592;8.858;2023-04-12T06:40:47;10.90;99.90
23124;DHT22;11731;48.592;8.858;2023-04-12T06:43:29;10.90;99.90
23124;DHT22;11731;48.592;8.858;2023-04-12T06:45:59;10.70;99.90
23124;DHT22;11731;48.592;8.858;2023-04-12T06:48:40;10.40;99.90
23124;DHT22;11731;48.592;8.858;2023-04-12T06:51:21;10.70;99.90
23124;DHT22;11731;48.592;8.858;2023-04-12T06:53:48;11.10;99.90
23124;DHT22;11731;48.592;8.858;2023-04-12T06:56:16;11.00;99.90
23124;DHT22;11731;48.592;8.858;2023-04-12T06:58:43;11.40;99.90
23124;DHT22;11731;48.592;8.858;2023-04-12T07:01:18;11.20;99.90
23124;DHT22;11731;48.592;8.858;2023-04-12T07:03:52;11.00;99.90
23124;DHT22;11731;48.592;8.858;2023-04-12T07:06:19;10.60;99.90
23124;DHT22;11731;48.592;8.858;2023-04-12T07:08:46;10.50;99.90
23124;DHT22;11731;48.592;8.858;2023-04-12T07:11:37;10.50;99.90
23124;DHT22;11731;48.592;8.858;2023-04-12T07:14:04;10.60;99.90
23124;DHT22;11731;48.592;8.858;2023-04-12T07:16:31;10.80;99.90
23124;DHT22;11731;48.592;8.858;2023-04-12T07:18:58;11.40;99.90
23124;DHT22;11731;48.592;8.858;2023-04-12T07:21:34;11.90;99.90
23124;DHT22;11731;48.592;8.858;2023-04-12T07:24:01;12.10;99.90
23124;DHT22;11731;48.592;8.858;2023-04-12T07:26:28;12.30;99.90
23124;DHT22;11731;48.592;8.858;2023-04-12T07:28:57;12.60;99.90
23124;DHT22;11731;48.592;8.858;2023-04-12T07:31:45;12.90;99.90
23124;DHT22;11731;48.592;8.858;2023-04-12T07:34:21;12.90;99.90
23124;DHT22;11731;48.592;8.858;2023-04-12T07:36:48;12.90;99.90
23124;DHT22;11731;48.592;8.858;2023-04-12T07:39:15;13.00;99.90
23124;DHT22;11731;48.592;8.858;2023-04-12T07:41:46;13.20;99.90
23124;DHT22;11731;48.592;8.858;2023-04-12T07:44:22;13.10;99.90
23124;DHT22;11731;48.592;8.858;2023-04-12T07:47:11;12.80;99.90
23124;DHT22;11731;48.592;8.858;2023-04-12T07:49:38;13.00;99.90
23124;DHT22;11731;48.592;8.858;2023-04-12T07:52:05;13.30;99.90
23124;DHT22;11731;48.592;8.858;2023-04-12T07:54:32;13.20;99.90
23124;DHT22;11731;48.592;8.858;2023-04-12T07:57:00;13.00;99.90
23124;DHT22;11731;48.592;8.858;2023-04-12T08:05:51;12.60;99.90
23124;DHT22;11731;48.592;8.858;2023-04-12T08:08:21;11.80;99.90
23124;DHT22;11731;48.592;8.858;2023-04-12T08:10:51;11.90;99.90
23124;DHT22;11731;48.592;8.858;2023-04-12T08:13:18;12.00;99.90
23124;DHT22;11731;48.592;8.858;2023-04-12T08:15:45;11.60;99.90
23124;DHT22;11731;48.592;8.858;2023-04-12T08:18:15;11.60;99.90
23124;DHT22;11731;48.592;8.858;2023-04-12T08:20:42;11.80;99.90
23124;DHT22;11731;48.592;8.858;2023-04-12T08:23:10;12.00;99.90
23124;DHT22;11731;48.592;8.858;2023-04-12T08:25:38;12.20;99.90
23124;DHT22;11731;48.592;8.858;2023-04-12T08:28:07;12.30;99.90
23124;DHT22;11731;48.592;8.858;2023-04-12T08:30:34;12.10;99.90
23124;DHT22;11731;48.592;8.858;2023-04-12T08:33:02;12.20;99.90
23124;DHT22;11731;48.592;8.858;2023-04-12T08:35:37;12.20;99.90
23124;DHT22;11731;48.592;8.858;2023-04-12T08:41:30;12.60;99.90
23124;DHT22;11731;48.592;8.858;2023-04-12T08:43:59;12.80;99.90
23124;DHT22;11731;48.592;8.858;2023-04-12T08:46:26;12.60;99.90
23124;DHT22;11731;48.592;8.858;2023-04-12T08:48:54;12.70;99.90
23124;DHT22;11731;48.592;8.858;2023-04-12T08:51:22;12.70;99.90
23124;DHT22;11731;48.592;8.858;2023-04-12T08:54:12;12.70;99.90
23124;DHT22;11731;48.592;8.858;2023-04-12T09:02:57;12.90;99.90
23124;DHT22;11731;48.592;8.858;2023-04-12T09:05:27;12.90;99.90
23124;DHT22;11731;48.592;8.858;2023-04-12T09:08:18;13.00;99.90
23124;DHT22;11731;48.592;8.858;2023-04-12T09:10:45;12.80;99.90
23124;DHT22;11731;48.592;8.858;2023-04-12T09:13:12;12.60;99.90
23124;DHT22;11731;48.592;8.858;2023-04-12T09:15:47;12.80;99.90
23124;DHT22;11731;48.592;8.858;2023-04-12T09:18:17;13.00;99.90
23124;DHT22;11731;48.592;8.858;2023-04-12T09:20:44;13.10;99.90
23124;DHT22;11731;48.592;8.858;2023-04-12T09:23:18;12.80;99.90
23124;DHT22;11731;48.592;8.858;2023-04-12T09:25:45;12.70;99.90
23124;DHT22;11731;48.592;8.858;2023-04-12T09:28:33;12.40;99.90
23124;DHT22;11731;48.592;8.858;2023-04-12T09:31:00;12.40;99.90
23124;DHT22;11731;48.592;8.858;2023-04-12T09:34:04;12.00;99.90
23124;DHT22;11731;48.592;8.858;2023-04-12T09:36:36;11.90;99.90
23124;DHT22;11731;48.592;8.858;2023-04-12T09:39:17;11.90;99.90
23124;DHT22;11731;48.592;8.858;2023-04-12T09:41:44;12.10;99.90
23124;DHT22;11731;48.592;8.858;2023-04-12T09:44:27;12.20;99.90
23124;DHT22;11731;48.592;8.858;2023-04-12T09:46:55;12.20;99.90
23124;DHT22;11731;48.592;8.858;2023-04-12T09:49:36;12.30;99.90
23124;DHT22;11731;48.592;8.858;2023-04-12T09:52:05;12.40;99.90
23124;DHT22;11731;48.592;8.858;2023-04-12T09:54:36;12.50;99.90
23124;DHT22;11731;48.592;8.858;2023-04-12T09:57:05;12.70;99.90
23124;DHT22;11731;48.592;8.858;2023-04-12T09:59:37;12.80;99.90
23124;DHT22;11731;48.592;8.858;2023-04-12T10:02:13;12.90;99.90
23124;DHT22;11731;48.592;8.858;2023-04-12T10:04:42;12.60;99.90
23124;DHT22;11731;48.592;8.858;2023-04-12T10:07:10;12.30;99.90
23124;DHT22;11731;48.592;8.858;2023-04-12T10:09:38;12.50;99.90
23124;DHT22;11731;48.592;8.858;2023-04-12T10:13:23;12.80;99.90
23124;DHT22;11731;48.592;8.858;2023-04-12T10:15:23;12.20;99.90
23124;DHT22;11731;48.592;8.858;2023-04-12T10:17:51;12.10;99.90
23124;DHT22;11731;48.592;8.858;2023-04-12T10:20:21;12.10;99.90
23124;DHT22;11731;48.592;8.858;2023-04-12T10:22:49;12.10;99.90
23124;DHT22;11731;48.592;8.858;2023-04-12T10:25:18;12.20;99.90
23124;DHT22;11731;48.592;8.858;2023-04-12T10:27:46;12.10;99.90
23124;DHT22;11731;48.592;8.858;2023-04-12T10:30:27;12.10;99.90
23124;DHT22;11731;48.592;8.858;2023-04-12T10:33:32;12.30;99.90
23124;DHT22;11731;48.592;8.858;2023-04-12T10:36:01;12.20;99.90
23124;DHT22;11731;48.592;8.858;2023-04-12T10:38:44;12.30;99.90
23124;DHT22;11731;48.592;8.858;2023-04-12T10:41:13;12.40;99.90
23124;DHT22;11731;48.592;8.858;2023-04-12T10:43:41;12.70;99.90
23124;DHT22;11731;48.592;8.858;2023-04-12T10:46:50;12.50;99.90
23124;DHT22;11731;48.592;8.858;2023-04-12T10:49:27;12.50;99.90
23124;DHT22;11731;48.592;8.858;2023-04-12T10:52:14;12.50;99.90
23124;DHT22;11731;48.592;8.858;2023-04-12T11:04:17;12.90;99.90
23124;DHT22;11731;48.592;8.858;2023-04-12T11:07:05;13.10;99.90
23124;DHT22;11731;48.592;8.858;2023-04-12T11:09:56;13.10;99.90
23124;DHT22;11731;48.592;8.858;2023-04-12T11:12:26;13.60;99.90
23124;DHT22;11731;48.592;8.858;2023-04-12T11:15:14;13.10;99.90
23124;DHT22;11731;48.592;8.858;2023-04-12T11:17:52;13.10;99.90
23124;DHT22;11731;48.592;8.858;2023-04-12T11:20:19;12.90;99.90
23124;DHT22;11731;48.592;8.858;2023-04-12T11:22:48;13.00;99.90
23124;DHT22;11731;48.592;8.858;2023-04-12T11:25:16;13.20;99.90
23124;DHT22;11731;48.592;8.858;2023-04-12T11:27:48;13.50;99.90
23124;DHT22;11731;48.592;8.858;2023-04-12T11:30:15;13.30;99.90
23124;DHT22;11731;48.592;8.858;2023-04-12T11:33:31;13.20;99.90
23124;DHT22;11731;48.592;8.858;2023-04-12T11:35:58;13.50;99.90
23124;DHT22;11731;48.592;8.858;2023-04-12T11:38:30;13.50;99.90
23124;DHT22;11731;48.592;8.858;2023-04-12T11:42:25;14.00;99.90
23124;DHT22;11731;48.592;8.858;2023-04-12T11:44:35;14.10;99.90
23124;DHT22;11731;48.592;8.858;2023-04-12T11:47:03;13.80;99.90
23124;DHT22;11731;48.592;8.858;2023-04-12T11:49:31;13.80;99.90
23124;DHT22;11731;48.592;8.858;2023-04-12T11:52:02;13.90;99.90
23124;DHT22;11731;48.592;8.858;2023-04-12T11:54:29;14.20;99.90
23124;DHT22;11731;48.592;8.858;2023-04-12T11:56:57;14.00;99.90
23124;DHT22;11731;48.592;8.858;2023-04-12T11:59:33;13.80;99.90
23124;DHT22;11731;48.592;8.858;2023-04-12T12:02:34;13.80;99.90
23124;DHT22;11731;48.592;8.858;2023-04-12T12:05:05;13.90;99.90
23124;DHT22;11731;48.592;8.858;2023-04-12T12:07:32;13.70;99.90
23124;DHT22;11731;48.592;8.858;2023-04-12T12:10:00;13.70;99.90
23124;DHT22;11731;48.592;8.858;2023-04-12T12:12:50;13.70;99.90
23124;DHT22;11731;48.592;8.858;2023-04-12T12:15:17;13.50;99.90
23124;DHT22;11731;48.592;8.858;2023-04-12T12:17:50;13.90;99.90
23124;DHT22;11731;48.592;8.858;2023-04-12T12:20:46;14.40;99.90
23124;DHT22;11731;48.592;8.858;2023-04-12T12:23:47;14.70;99.90
23124;DHT22;11731;48.592;8.858;2023-04-12T12:26:20;15.00;99.90
23124;DHT22;11731;48.592;8.858;2023-04-12T12:29:16;15.10;99.90
23124;DHT22;11731;48.592;8.858;2023-04-12T12:31:45;15.00;99.90
23124;DHT22;11731;48.592;8.858;2023-04-12T12:34:13;14.70;99.90
23124;DHT22;11731;48.592;8.858;2023-04-12T12:36:53;14.90;99.90
23124;DHT22;11731;48.592;8.858;2023-04-12T12:39:25;14.60;99.90
23124;DHT22;11731;48.592;8.858;2023-04-12T12:42:15;14.40;99.90
23124;DHT22;11731;48.592;8.858;2023-04-12T12:44:42;14.30;99.90
23124;DHT22;11731;48.592;8.858;2023-04-12T12:47:09;14.50;99.90
23124;DHT22;11731;48.592;8.858;2023-04-12T12:49:36;14.30;99.90
23124;DHT22;11731;48.592;8.858;2023-04-12T12:52:04;14.40;99.90
23124;DHT22;11731;48.592;8.858;2023-04-12T12:54:31;14.80;99.90
23124;DHT22;11731;48.592;8.858;2023-04-12T12:56:58;15.10;99.90
23124;DHT22;11731;48.592;8.858;2023-04-12T12:59:25;15.10;99.90
23124;DHT22;11731;48.592;8.858;2023-04-12T13:02:47;14.90;99.90
23124;DHT22;11731;48.592;8.858;2023-04-12T13:05:04;15.00;99.90
23124;DHT22;11731;48.592;8.858;2023-04-12T13:07:33;15.20;99.90
23124;DHT22;11731;48.592;8.858;2023-04-12T13:10:00;15.10;99.90
23124;DHT22;11731;48.592;8.858;2023-04-12T13:15:46;14.60;99.90
23124;DHT22;11731;48.592;8.858;2023-04-12T13:18:17;14.80;99.90
23124;DHT22;11731;48.592;8.858;2023-04-12T13:20:44;14.70;99.90
23124;DHT22;11731;48.592;8.858;2023-04-12T13:26:44;15.40;99.90
23124;DHT22;11731;48.592;8.858;2023-04-12T13:29:11;15.40;99.90
23124;DHT22;11731;48.592;8.858;2023-04-12T13:31:38;14.90;99.90
23124;DHT22;11731;48.592;8.858;2023-04-12T13:36:34;14.90;99.90
23124;DHT22;11731;48.592;8.858;2023-04-12T13:37:26;15.00;99.90
23124;DHT22;11731;48.592;8.858;2023-04-12T13:39:54;14.50;99.90
23124;DHT22;11731;48.592;8.858;2023-04-12T13:42:24;14.60;99.90
23124;DHT22;11731;48.592;8.858;2023-04-12T13:44:51;14.60;99.90
23124;DHT22;11731;48.592;8.858;2023-04-12T13:47:18;14.80;99.90
23124;DHT22;11731;48.592;8.858;2023-04-12T13:49:45;14.70;99.90
23124;DHT22;11731;48.592;8.858;2023-04-12T13:52:12;14.80;99.90
23124;DHT22;11731;48.592;8.858;2023-04-12T13:54:39;14.90;99.90
23124;DHT22;11731;48.592;8.858;2023-04-12T13:57:07;14.80;99.90
23124;DHT22;11731;48.592;8.858;2023-04-12T13:59:36;14.70;99.90
23124;DHT22;11731;48.592;8.858;2023-04-12T14:02:03;14.80;99.90
23124;DHT22;11731;48.592;8.858;2023-04-12T14:04:30;14.70;99.90
23124;DHT22;11731;48.592;8.858;2023-04-12T14:06:57;15.10;99.90
23124;DHT22;11731;48.592;8.858;2023-04-12T14:09:26;15.40;99.90
23124;DHT22;11731;48.592;8.858;2023-04-12T14:11:54;15.40;99.90
23124;DHT22;11731;48.592;8.858;2023-04-12T14:14:23;15.40;99.90
23124;DHT22;11731;48.592;8.858;2023-04-12T14:17:06;15.40;99.90
23124;DHT22;11731;48.592;8.858;2023-04-12T14:19:38;15.50;99.90
23124;DHT22;11731;48.592;8.858;2023-04-12T14:22:09;15.60;99.90
23124;DHT22;11731;48.592;8.858;2023-04-12T14:24:36;15.60;99.90
23124;DHT22;11731;48.592;8.858;2023-04-12T14:27:03;15.20;99.90
23124;DHT22;11731;48.592;8.858;2023-04-12T14:29:30;15.30;99.90
23124;DHT22;11731;48.592;8.858;2023-04-12T14:31:58;15.30;99.90
23124;DHT22;11731;48.592;8.858;2023-04-12T14:34:26;15.10;99.90
23124;DHT22;11731;48.592;8.858;2023-04-12T14:36:53;15.20;99.90
23124;DHT22;11731;48.592;8.858;2023-04-12T14:39:20;15.30;99.90
23124;DHT22;11731;48.592;8.858;2023-04-12T14:41:48;15.50;99.90
23124;DHT22;11731;48.592;8.858;2023-04-12T14:44:15;15.60;99.90
23124;DHT22;11731;48.592;8.858;2023-04-12T14:46:42;15.70;99.90
23124;DHT22;11731;48.592;8.858;2023-04-12T14:49:09;15.50;99.90
23124;DHT22;11731;48.592;8.858;2023-04-12T14:51:37;15.10;99.90
23124;DHT22;11731;48.592;8.858;2023-04-12T14:54:08;14.70;99.90
23124;DHT22;11731;48.592;8.858;2023-04-12T14:56:37;14.70;99.90
23124;DHT22;11731;48.592;8.858;2023-04-12T14:59:24;14.90;99.90
23124;DHT22;11731;48.592;8.858;2023-04-12T15:01:51;15.00;99.90
23124;DHT22;11731;48.592;8.858;2023-04-12T15:04:18;14.80;99.90
23124;DHT22;11731;48.592;8.858;2023-04-12T15:06:47;14.80;99.90
23124;DHT22;11731;48.592;8.858;2023-04-12T15:09:14;14.40;99.90
23124;DHT22;11731;48.592;8.858;2023-04-12T15:11:43;13.00;99.90
23124;DHT22;11731;48.592;8.858;2023-04-12T15:14:15;12.20;99.90
23124;DHT22;11731;48.592;8.858;2023-04-12T15:16:44;11.40;99.90
23124;DHT22;11731;48.592;8.858;2023-04-12T15:19:13;11.00;99.90
23124;DHT22;11731;48.592;8.858;2023-04-12T15:21:40;10.40;99.90
23124;DHT22;11731;48.592;8.858;2023-04-12T15:24:14;10.10;99.90
23124;DHT22;11731;48.592;8.858;2023-04-12T15:26:42;10.00;99.90
23124;DHT22;11731;48.592;8.858;2023-04-12T15:29:09;9.90;99.90
23124;DHT22;11731;48.592;8.858;2023-04-12T15:31:36;9.80;99.90
23124;DHT22;11731;48.592;8.858;2023-04-12T15:34:03;9.80;99.90
23124;DHT22;11731;48.592;8.858;2023-04-12T15:36:30;9.90;99.90
23124;DHT22;11731;48.592;8.858;2023-04-12T15:39:21;9.90;99.90
23124;DHT22;11731;48.592;8.858;2023-04-12T15:41:48;10.20;99.90
23124;DHT22;11731;48.592;8.858;2023-04-12T15:44:25;10.20;99.90
23124;DHT22;11731;48.592;8.858;2023-04-12T15:46:59;10.50;99.90
23124;DHT22;11731;48.592;8.858;2023-04-12T15:49:31;10.70;99.90
23124;DHT22;11731;48.592;8.858;2023-04-12T15:51:58;10.80;99.90
23124;DHT22;11731;48.592;8.858;2023-04-12T15:54:26;11.00;99.90
23124;DHT22;11731;48.592;8.858;2023-04-12T15:56:53;10.90;99.90
23124;DHT22;11731;48.592;8.858;2023-04-12T15:59:20;10.80;99.90
23124;DHT22;11731;48.592;8.858;2023-04-12T16:01:47;10.90;99.90
23124;DHT22;11731;48.592;8.858;2023-04-12T16:04:15;11.20;99.90
23124;DHT22;11731;48.592;8.858;2023-04-12T16:06:42;11.50;99.90
23124;DHT22;11731;48.592;8.858;2023-04-12T16:09:10;11.40;99.90
23124;DHT22;11731;48.592;8.858;2023-04-12T16:11:42;11.20;99.90
23124;DHT22;11731;48.592;8.858;2023-04-12T16:14:14;11.10;99.90
23124;DHT22;11731;48.592;8.858;2023-04-12T16:16:41;11.10;99.90
23124;DHT22;11731;48.592;8.858;2023-04-12T16:19:09;11.30;99.90
23124;DHT22;11731;48.592;8.858;2023-04-12T16:21:39;11.30;99.90
23124;DHT22;11731;48.592;8.858;2023-04-12T16:24:06;11.30;99.90
23124;DHT22;11731;48.592;8.858;2023-04-12T16:26:34;11.40;99.90
23124;DHT22;11731;48.592;8.858;2023-04-12T16:29:03;11.60;99.90
23124;DHT22;11731;48.592;8.858;2023-04-12T16:31:30;11.80;99.90
23124;DHT22;11731;48.592;8.858;2023-04-12T16:33:57;11.90;99.90
23124;DHT22;11731;48.592;8.858;2023-04-12T16:36:24;11.80;99.90
23124;DHT22;11731;48.592;8.858;2023-04-12T16:38:52;11.70;99.90
23124;DHT22;11731;48.592;8.858;2023-04-12T16:41:20;11.90;99.90
23124;DHT22;11731;48.592;8.858;2023-04-12T16:43:47;11.90;99.90
23124;DHT22;11731;48.592;8.858;2023-04-12T16:46:18;11.90;99.90
23124;DHT22;11731;48.592;8.858;2023-04-12T16:48:46;11.70;99.90
23124;DHT22;11731;48.592;8.858;2023-04-12T16:51:14;11.50;99.90
23124;DHT22;11731;48.592;8.858;2023-04-12T16:53:41;11.50;99.90
23124;DHT22;11731;48.592;8.858;2023-04-12T16:56:08;11.40;99.90
23124;DHT22;11731;48.592;8.858;2023-04-12T16:58:35;11.30;99.90
23124;DHT22;11731;48.592;8.858;2023-04-12T17:01:02;11.30;99.90
23124;DHT22;11731;48.592;8.858;2023-04-12T17:03:30;11.00;99.90
23124;DHT22;11731;48.592;8.858;2023-04-12T17:05:57;10.90;99.90
23124;DHT22;11731;48.592;8.858;2023-04-12T17:08:24;10.80;99.90
23124;DHT22;11731;48.592;8.858;2023-04-12T17:10:51;11.00;99.90
23124;DHT22;11731;48.592;8.858;2023-04-12T17:13:18;11.00;99.90
23124;DHT22;11731;48.592;8.858;2023-04-12T17:15:45;11.00;99.90
23124;DHT22;11731;48.592;8.858;2023-04-12T17:18:13;10.90;99.90
23124;DHT22;11731;48.592;8.858;2023-04-12T17:20:42;11.30;99.90
23124;DHT22;11731;48.592;8.858;2023-04-12T17:23:09;11.30;99.90
23124;DHT22;11731;48.592;8.858;2023-04-12T17:25:38;11.40;99.90